Adana, ?ncirlik Air Base (LTAG)

Name?ncirlik Air Base
CityAdana
CountryTurkey
ICAOLTAG
IATAUAB
Altitude73 m
CoordinatesGoogle Map
Live Air TrafficLiveATC.net
METARLTAG 190750Z 02009KT CAVOK 31/09 Q1013 NOSIG
2018-10-19 07:50:00 Wind: North (20°) 4.63 m/s - Visibility: > 10000 m - Weather: CAVOK - Temperature: 31 °C - Dew point: 9 °C - Humidity: 25.4% - Pressure: 1013 hPa

Sorry, no flights used the airport in this database.